Sella Ness, United Kingdom
Current Conditions -  °F | °C
As of 2:50 PM on Sunday 21 Dec 2014 (Local Time) from EGPM Reporting Station
Light Rain Light Rain  
Wind Chill: 40°   Ceiling: Unl
Heat Index: 48°   Visibility: 6mi
Dew Point: 45°   Wind: 24mph
Humidity: 87%   Direction: 240°WSW
Pressure: 29.29"   Gusts: NA
Location:  60.45°N, 1.27°W
Report Text: EGPM 211450Z 24021KT 9999 -RA FEW012 SCT032 09/07 Q0992 NOSIG
Loading
Personal Weather Stations






























Interactive Weather Map New forecast layout! Learn more

10-Day Weather Forecast

Advertisements
Track Severe Weather on mobile